»·PEaware :: CGVZB YMML-YPAD

CGVZB :: YMML-YPAD

FLIGHT INFORMATION

Flight Status: Arrived
Operator: Unknown
More flights by this operator :: More flights under this callsign
Pilot: Alan S. (10569)
Aircraft: BOEING 737-300
(B733)
More flights by this aircraft type
Origin: YMML Melbourne Intl
Australia
Destination: YPAD Adelaide Intl
Australia
More flights between these airports :: More routes between these airports
Route: KEPPA8 BOR DRINA7A
File this flight plan on PilotEdge
Remarks: EQUIP / G @twitch.tv / aerosimgaming
Altitude:
(Current/Filed)
32,000ft
Speed:
(Current/Filed)
460kts
Departed: 08-May-16 10:47 PM
Arrived: 08-May-16 11:49 PM
Distance/Time
Traveled:
346nm/1:01
Distance/Time
To Go:
Arrived

Flight Plot

Page will automatically refresh every two minutes.


Map Options




Map Legend


Flown Route
Filed Route
Departure Airport
Arrival Airport
Navaid (VOR, NDB)
Fix

Horizontal Profiles

Position Reports

Time Latitude Longitude Heading Altitude Ground
Speed
08-May-16 22:17 -37.672677 144.845660 172 440ft 0kts
08-May-16 22:18 -37.672677 144.845660 172 440ft 0kts
08-May-16 22:19 -37.672677 144.845660 172 440ft 0kts
08-May-16 22:20 -37.672677 144.845660 172 440ft 0kts
08-May-16 22:21 -37.672687 144.845656 172 440ft 0kts
08-May-16 22:22 -37.672687 144.845656 172 440ft 0kts
08-May-16 22:23 -37.672687 144.845656 172 440ft 0kts
08-May-16 22:24 -37.672686 144.845656 172 440ft 0kts
08-May-16 22:25 -37.672686 144.845656 172 440ft 0kts
08-May-16 22:26 -37.672686 144.845656 172 440ft 0kts
08-May-16 22:27 -37.672686 144.845656 172 440ft 0kts
08-May-16 22:28 -37.672686 144.845656 172 440ft 0kts
08-May-16 22:29 -37.672686 144.845656 172 440ft 0kts
08-May-16 22:30 -37.672686 144.845656 172 440ft 0kts
08-May-16 22:31 -37.672686 144.845656 172 440ft 0kts
08-May-16 22:32 -37.672445 144.845613 171 440ft 0kts
08-May-16 22:33 -37.672064 144.845943 260 440ft 0kts
08-May-16 22:34 -37.672061 144.845969 261 440ft 0kts
08-May-16 22:35 -37.672061 144.845969 261 440ft 0kts
08-May-16 22:36 -37.672061 144.845969 261 440ft 0kts
08-May-16 22:37 -37.672061 144.845969 262 440ft 0kts
08-May-16 22:38 -37.672070 144.845882 262 440ft 1kts
08-May-16 22:39 -37.672021 144.843747 263 440ft 8kts
08-May-16 22:40 -37.673876 144.843085 171 440ft 9kts
08-May-16 22:41 -37.677217 144.843626 171 440ft 15kts
08-May-16 22:42 -37.682508 144.844632 172 440ft 22kts
08-May-16 22:43 -37.685441 144.842847 237 440ft 3kts
08-May-16 22:44 -37.685619 144.841104 301 440ft 11kts
08-May-16 22:45 -37.684425 144.840727 352 440ft 26kts
08-May-16 22:46 -37.647194 144.834503 352 2102ft 183kts
08-May-16 22:47 -37.591176 144.824782 357 4652ft 242kts
08-May-16 22:48 -37.530865 144.794770 312 7661ft 280kts
08-May-16 22:49 -37.475958 144.724589 317 10851ft 304kts
08-May-16 22:50 -37.412470 144.652269 317 13728ft 329kts
08-May-16 22:51 -37.344814 144.576193 319 16433ft 349kts
08-May-16 22:52 -37.285093 144.511021 319 18776ft 355kts
08-May-16 22:53 -37.199959 144.416613 320 21295ft 376kts
08-May-16 22:54 -37.136227 144.349167 319 23118ft 384kts
08-May-16 22:55 -37.047076 144.248574 317 24668ft 416kts
08-May-16 22:56 -36.974869 144.168175 318 26009ft 431kts
08-May-16 22:57 -36.887449 144.072817 319 27685ft 443kts
08-May-16 22:58 -36.797370 143.970622 304 29383ft 448kts
08-May-16 22:59 -36.776415 143.825610 276 31185ft 443kts
08-May-16 23:00 -36.760069 143.674352 277 31515ft 442kts
08-May-16 23:01 -36.742945 143.524180 277 31472ft 440kts
08-May-16 23:02 -36.725719 143.374809 277 31465ft 441kts
08-May-16 23:03 -36.709103 143.228311 278 31452ft 441kts
08-May-16 23:04 -36.691796 143.081227 278 31453ft 441kts
08-May-16 23:05 -36.673784 142.930103 278 31452ft 441kts
08-May-16 23:06 -36.654656 142.783780 279 31452ft 441kts
08-May-16 23:07 -36.636074 142.635349 278 31379ft 438kts
08-May-16 23:08 -36.618240 142.489195 278 31313ft 436kts
08-May-16 23:09 -36.600322 142.343867 278 31318ft 437kts
08-May-16 23:10 -36.582832 142.199517 278 31317ft 437kts
08-May-16 23:11 -36.564333 142.052419 278 31317ft 437kts
08-May-16 23:12 -36.545446 141.903863 278 31317ft 437kts
08-May-16 23:13 -36.526558 141.756792 278 31317ft 437kts
08-May-16 23:14 -36.507453 141.609516 278 31317ft 437kts
08-May-16 23:15 -36.488186 141.462468 278 31317ft 437kts
08-May-16 23:16 -36.469028 141.316664 279 31317ft 437kts
08-May-16 23:17 -36.449949 141.171089 279 31317ft 437kts
08-May-16 23:18 -36.430490 141.026783 279 31317ft 437kts
08-May-16 23:19 -36.410746 140.881750 279 31317ft 437kts
08-May-16 23:20 -36.389439 140.738128 291 31300ft 436kts
08-May-16 23:21 -36.316695 140.624792 308 31324ft 437kts
08-May-16 23:22 -36.244947 140.512412 307 31316ft 437kts
08-May-16 23:23 -36.172196 140.398111 307 31318ft 437kts
08-May-16 23:24 -36.103182 140.289314 308 31317ft 437kts
08-May-16 23:25 -36.031887 140.177763 308 31317ft 437kts
08-May-16 23:26 -35.959084 140.064499 308 31356ft 438kts
08-May-16 23:27 -35.887188 139.953006 308 31417ft 440kts
08-May-16 23:28 -35.814075 139.839993 308 31426ft 440kts
08-May-16 23:29 -35.739051 139.724410 308 30951ft 439kts
08-May-16 23:30 -35.661901 139.605926 308 27025ft 448kts
08-May-16 23:31 -35.588172 139.493116 308 24520ft 425kts
08-May-16 23:32 -35.516620 139.383981 308 21988ft 407kts
08-May-16 23:33 -35.449256 139.280824 308 19603ft 390kts
08-May-16 23:34 -35.365257 139.209046 339 17256ft 375kts
08-May-16 23:35 -35.270656 139.165403 339 15019ft 361kts
08-May-16 23:36 -35.196469 139.131080 339 13323ft 349kts
08-May-16 23:37 -35.107622 139.088978 338 11764ft 354kts
08-May-16 23:38 -35.029307 139.027482 317 9768ft 334kts
08-May-16 23:39 -34.972394 138.963730 318 9466ft 279kts
08-May-16 23:40 -34.918818 138.902707 317 8098ft 268kts
08-May-16 23:41 -34.866722 138.844038 317 6900ft 252kts
08-May-16 23:42 -34.816342 138.788230 315 5535ft 246kts
08-May-16 23:43 -34.816304 138.720555 232 4723ft 231kts
08-May-16 23:44 -34.859374 138.662279 235 2437ft 223kts
08-May-16 23:45 -34.891635 138.614631 236 1576ft 149kts
08-May-16 23:46 -34.915608 138.580866 235 771ft 116kts
08-May-16 23:47 -34.936764 138.548871 237 135ft 121kts
08-May-16 23:48 -34.945021 138.533550 255 27ft 1kts

Navigation Log

Ident Type
Flight plan parsing failed, navigation log unavailable